createdAt,value
2023-01-27T00:04:46.928Z,26.79
2023-01-27T00:09:54.149Z,26.79
2023-01-27T00:15:01.303Z,26.80
2023-01-27T00:20:08.495Z,26.82
2023-01-27T00:25:15.689Z,26.85
2023-01-27T00:30:22.855Z,26.89
2023-01-27T00:35:30.099Z,26.92
2023-01-27T00:40:37.365Z,27.00
2023-01-27T00:45:44.501Z,27.08
2023-01-27T00:50:51.709Z,27.16
2023-01-27T00:55:58.925Z,27.25
2023-01-27T01:01:06.202Z,27.28
2023-01-27T01:06:13.369Z,27.39
2023-01-27T01:11:20.554Z,27.46
2023-01-27T01:16:27.790Z,27.52
2023-01-27T01:21:34.915Z,27.58
2023-01-27T01:26:42.125Z,27.64
2023-01-27T01:31:49.334Z,27.69
2023-01-27T01:36:56.455Z,27.76
2023-01-27T01:42:03.670Z,27.82
2023-01-27T01:47:10.941Z,27.87
2023-01-27T01:52:18.112Z,27.93
2023-01-27T01:57:25.331Z,28.01
2023-01-27T02:02:32.570Z,28.05
2023-01-27T02:07:39.777Z,28.08
2023-01-27T02:12:47.049Z,28.09
2023-01-27T02:17:54.279Z,28.09
2023-01-27T02:23:01.609Z,28.05
2023-01-27T02:28:08.768Z,28.16
2023-01-27T02:33:15.939Z,28.15
2023-01-27T02:38:23.083Z,28.20
2023-01-27T02:43:30.288Z,28.27
2023-01-27T02:48:37.448Z,28.23
2023-01-27T02:53:44.733Z,28.25
2023-01-27T02:58:51.961Z,28.24
2023-01-27T03:03:59.119Z,28.27
2023-01-27T03:09:06.355Z,28.26
2023-01-27T03:14:13.607Z,28.33
2023-01-27T03:19:20.878Z,28.29
2023-01-27T03:24:28.169Z,28.40
2023-01-27T03:29:35.271Z,28.44
2023-01-27T03:34:42.413Z,28.51
2023-01-27T03:39:49.701Z,28.69
2023-01-27T03:44:56.907Z,28.98
2023-01-27T03:50:04.066Z,29.02
2023-01-27T03:55:11.699Z,29.05
2023-01-27T04:00:18.555Z,29.02
2023-01-27T04:05:25.949Z,29.08
2023-01-27T04:10:33.112Z,29.05
2023-01-27T04:15:40.353Z,29.06
2023-01-27T04:20:47.455Z,29.08
2023-01-27T04:25:54.665Z,29.13
2023-01-27T04:31:02.077Z,29.15
2023-01-27T04:36:09.122Z,29.12
2023-01-27T04:41:16.318Z,29.18
2023-01-27T04:46:23.537Z,29.14
2023-01-27T04:51:30.804Z,29.11
2023-01-27T04:56:38.050Z,29.21
2023-01-27T05:01:45.315Z,29.24
2023-01-27T05:06:52.447Z,29.27
2023-01-27T05:11:59.623Z,29.28
2023-01-27T05:17:07.137Z,29.28
2023-01-27T05:22:14.089Z,29.27
2023-01-27T05:27:21.295Z,29.27
2023-01-27T05:32:28.582Z,29.27
2023-01-27T05:37:35.755Z,29.30
2023-01-27T05:42:42.944Z,29.27
2023-01-27T05:47:50.131Z,29.27
2023-01-27T05:52:57.294Z,29.24
2023-01-27T05:58:04.483Z,29.31
2023-01-27T06:03:11.786Z,29.29
2023-01-27T06:08:18.947Z,29.31
2023-01-27T06:13:26.224Z,29.36
2023-01-27T06:18:33.589Z,29.35
2023-01-27T06:23:40.717Z,29.39
2023-01-27T06:28:47.874Z,29.42
2023-01-27T06:33:55.115Z,29.43
2023-01-27T06:39:02.265Z,29.45
2023-01-27T06:44:09.502Z,29.39
2023-01-27T06:49:16.746Z,29.38
2023-01-27T06:54:23.912Z,29.35
2023-01-27T06:59:31.172Z,29.37
2023-01-27T07:04:38.435Z,29.38
2023-01-27T07:09:52.464Z,29.40
2023-01-27T07:14:52.906Z,29.43
2023-01-27T07:20:00.184Z,29.38
2023-01-27T07:25:07.353Z,29.39
2023-01-27T07:30:15.130Z,29.43
2023-01-27T07:35:21.843Z,29.47
2023-01-27T07:40:29.160Z,29.48
2023-01-27T07:45:36.259Z,29.54
2023-01-27T07:50:43.397Z,29.58
2023-01-27T07:55:50.545Z,29.63
2023-01-27T08:00:57.814Z,29.56
2023-01-27T08:06:05.101Z,29.56
2023-01-27T08:11:12.344Z,29.54
2023-01-27T08:16:19.626Z,29.54
2023-01-27T08:21:26.785Z,29.58
2023-01-27T08:26:34.089Z,30.06
2023-01-27T08:31:41.498Z,29.48
2023-01-27T08:36:48.650Z,28.98
2023-01-27T08:41:55.788Z,28.64
2023-01-27T08:47:03.023Z,28.18
2023-01-27T08:52:10.390Z,28.03
2023-01-27T08:57:17.554Z,27.65
2023-01-27T09:02:24.691Z,27.74
2023-01-27T09:07:31.909Z,27.54
2023-01-27T09:12:39.094Z,27.53
2023-01-27T09:17:46.302Z,27.22
2023-01-27T09:22:53.492Z,26.93
2023-01-27T09:28:00.637Z,26.89
2023-01-27T09:33:07.955Z,26.83
2023-01-27T09:38:15.170Z,26.65
2023-01-27T09:43:22.351Z,26.67
2023-01-27T09:48:29.500Z,26.60
2023-01-27T09:53:36.740Z,26.44
2023-01-27T09:58:43.902Z,26.39
2023-01-27T10:03:51.092Z,26.14
2023-01-27T10:08:58.279Z,26.08
2023-01-27T10:14:05.436Z,26.03
2023-01-27T10:19:12.628Z,26.10
2023-01-27T10:24:20.051Z,25.99
2023-01-27T10:29:27.178Z,25.86
2023-01-27T10:34:34.382Z,25.95
2023-01-27T10:39:41.586Z,25.60
2023-01-27T10:44:48.763Z,25.61
2023-01-27T10:49:55.917Z,25.54
2023-01-27T10:55:03.112Z,25.45
2023-01-27T11:00:37.943Z,25.36
2023-01-27T11:05:17.627Z,25.23
2023-01-27T11:10:24.901Z,25.16
2023-01-27T11:15:32.148Z,25.05
2023-01-27T11:20:39.321Z,24.97
2023-01-27T11:25:46.800Z,24.93
2023-01-27T11:30:54.215Z,24.70
2023-01-27T11:36:01.494Z,24.68
2023-01-27T11:41:08.703Z,24.66
2023-01-27T11:46:16.161Z,24.49
2023-01-27T11:51:23.282Z,24.45
2023-01-27T11:56:30.457Z,24.42
2023-01-27T12:01:37.622Z,24.37
2023-01-27T12:06:44.910Z,24.58
2023-01-27T12:11:52.136Z,24.48
2023-01-27T12:16:59.305Z,24.48
2023-01-27T12:22:06.470Z,24.66
2023-01-27T12:27:13.686Z,24.71
2023-01-27T12:32:20.846Z,24.64
2023-01-27T12:37:28.222Z,24.67
2023-01-27T12:42:35.443Z,24.76
2023-01-27T12:47:42.566Z,24.72
2023-01-27T12:52:49.757Z,24.79
2023-01-27T12:57:56.964Z,24.75
2023-01-27T13:03:04.127Z,24.75
2023-01-27T13:08:11.317Z,24.64
2023-01-27T13:13:18.617Z,24.77
2023-01-27T13:18:25.786Z,24.74
2023-01-27T13:23:32.961Z,27.31
2023-01-27T13:28:52.305Z,29.22
2023-01-27T13:33:47.952Z,27.90
2023-01-27T13:38:55.180Z,27.79
2023-01-27T13:44:02.383Z,27.43
2023-01-27T13:49:09.583Z,27.24
2023-01-27T13:54:16.784Z,26.99
2023-01-27T13:59:23.996Z,26.94
2023-01-27T14:04:31.224Z,27.46
2023-01-27T14:09:40.612Z,26.78
2023-01-27T14:14:57.389Z,26.73
2023-01-27T14:19:52.899Z,26.60
2023-01-27T14:25:00.085Z,27.56
2023-01-27T14:30:07.636Z,27.95
2023-01-27T14:35:14.567Z,27.90
2023-01-27T14:40:21.799Z,28.51
2023-01-27T14:45:29.054Z,28.31
2023-01-27T14:50:36.225Z,28.72
2023-01-27T14:55:43.499Z,28.76
2023-01-27T15:00:50.831Z,28.82
2023-01-27T15:05:57.867Z,28.57
2023-01-27T15:11:05.053Z,28.67
2023-01-27T15:16:12.332Z,29.33
2023-01-27T15:21:19.459Z,28.03
2023-01-27T15:26:26.700Z,29.02
2023-01-27T15:31:34.081Z,26.71
2023-01-27T15:36:41.126Z,28.80
2023-01-27T15:41:48.317Z,28.22
2023-01-27T15:46:55.570Z,27.99
2023-01-27T15:52:02.752Z,27.89
2023-01-27T15:57:09.935Z,29.11
2023-01-27T16:02:17.174Z,28.08
2023-01-27T16:07:24.242Z,28.40
2023-01-27T16:12:31.471Z,28.23
2023-01-27T16:17:38.698Z,28.78
2023-01-27T16:22:45.848Z,28.61
2023-01-27T16:27:53.067Z,28.62
2023-01-27T16:33:00.249Z,28.63
2023-01-27T16:38:07.357Z,28.73
2023-01-27T16:43:14.616Z,28.50
2023-01-27T16:48:21.879Z,28.69
2023-01-27T16:53:29.048Z,28.92
2023-01-27T16:58:46.038Z,28.76
2023-01-27T17:03:43.465Z,28.76
2023-01-27T17:08:50.614Z,28.69
2023-01-27T17:13:57.986Z,28.71
2023-01-27T17:19:05.502Z,28.58
2023-01-27T17:24:12.729Z,28.53
2023-01-27T17:29:19.858Z,28.49
2023-01-27T17:34:27.049Z,28.45
2023-01-27T17:39:34.202Z,28.28
2023-01-27T17:44:41.368Z,28.34
2023-01-27T17:49:48.856Z,28.21
2023-01-27T17:54:56.177Z,28.11
2023-01-27T18:00:03.354Z,27.96
2023-01-27T18:05:10.907Z,27.64
2023-01-27T18:10:18.405Z,27.38
2023-01-27T18:15:25.698Z,27.46
2023-01-27T18:20:33.212Z,27.43
2023-01-27T18:25:40.627Z,27.48
2023-01-27T18:30:48.121Z,27.60
2023-01-27T18:35:55.856Z,27.63
2023-01-27T18:41:03.439Z,27.64
2023-01-27T18:46:11.154Z,27.60
2023-01-27T18:51:18.530Z,28.04
2023-01-27T18:56:25.861Z,27.82
2023-01-27T19:01:35.146Z,27.62
2023-01-27T19:06:40.617Z,27.52
2023-01-27T19:11:49.137Z,27.67
2023-01-27T19:16:56.451Z,27.57
2023-01-27T19:22:03.868Z,27.54
2023-01-27T19:27:11.315Z,27.39
2023-01-27T19:32:18.875Z,27.40
2023-01-27T19:37:27.558Z,27.32
2023-01-27T19:42:35.125Z,27.40
2023-01-27T19:47:42.790Z,27.31
2023-01-27T19:52:50.208Z,27.25
2023-01-27T19:57:58.274Z,27.12
2023-01-27T20:03:05.781Z,27.18
2023-01-27T20:08:13.519Z,27.19
2023-01-27T20:13:22.036Z,27.42
2023-01-27T20:18:29.857Z,27.74
2023-01-27T20:23:37.511Z,27.86
2023-01-27T20:28:45.296Z,27.92
2023-01-27T20:33:52.803Z,27.50
2023-01-27T20:39:00.438Z,27.51
2023-01-27T20:44:07.986Z,27.37
2023-01-27T20:49:15.642Z,27.40
2023-01-27T20:54:23.234Z,27.31
2023-01-27T20:59:30.996Z,27.54
2023-01-27T21:04:38.392Z,27.21
2023-01-27T21:09:45.678Z,27.23
2023-01-27T21:14:53.208Z,27.14
2023-01-27T21:20:00.563Z,27.00
2023-01-27T21:25:07.866Z,27.28
2023-01-27T21:30:15.123Z,27.28
2023-01-27T21:35:22.296Z,27.02
2023-01-27T21:40:29.587Z,27.05
2023-01-27T21:45:37.047Z,26.76
2023-01-27T21:50:44.428Z,26.99
2023-01-27T21:55:51.690Z,26.97
2023-01-27T22:00:58.931Z,26.95
2023-01-27T22:06:06.101Z,27.28
2023-01-27T22:11:13.310Z,27.10
2023-01-27T22:16:20.512Z,27.18
2023-01-27T22:21:27.671Z,26.86
2023-01-27T22:26:34.846Z,26.85
2023-01-27T22:31:42.006Z,26.92
2023-01-27T22:36:49.199Z,26.84
2023-01-27T22:41:56.434Z,26.83
2023-01-27T22:47:03.673Z,26.89
2023-01-27T22:52:10.934Z,27.12
2023-01-27T22:57:18.149Z,27.27
2023-01-27T23:02:25.389Z,26.98
2023-01-27T23:07:32.608Z,26.88
2023-01-27T23:12:39.870Z,26.85
2023-01-27T23:17:47.077Z,26.53
2023-01-27T23:22:54.274Z,26.60
2023-01-27T23:28:01.478Z,26.82
2023-01-27T23:33:08.681Z,26.88
2023-01-27T23:38:31.495Z,26.91
2023-01-27T23:43:23.110Z,26.79
2023-01-27T23:48:30.373Z,26.51
2023-01-27T23:53:37.593Z,26.58
2023-01-27T23:58:44.805Z,26.49
